sensor_id;sensor_type;location;lat;lon;timestamp;P1;durP1;ratioP1;P2;durP2;ratioP2
28836;SDS011;50669;50.982;11.022;2022-09-01T00:02:24;1.57;;;0.97;;
28836;SDS011;50669;50.982;11.022;2022-09-01T00:04:53;2.17;;;1.10;;
28836;SDS011;50669;50.982;11.022;2022-09-01T00:07:22;1.17;;;0.85;;
28836;SDS011;50669;50.982;11.022;2022-09-01T00:09:48;1.73;;;0.90;;
28836;SDS011;50669;50.982;11.022;2022-09-01T00:12:18;1.77;;;1.00;;
28836;SDS011;50669;50.982;11.022;2022-09-01T00:14:47;2.17;;;1.33;;
28836;SDS011;50669;50.982;11.022;2022-09-01T00:17:13;3.92;;;1.10;;
28836;SDS011;50669;50.982;11.022;2022-09-01T00:19:41;3.42;;;1.20;;
28836;SDS011;50669;50.982;11.022;2022-09-01T00:22:09;2.00;;;0.90;;
28836;SDS011;50669;50.982;11.022;2022-09-01T00:24:35;2.78;;;0.70;;
28836;SDS011;50669;50.982;11.022;2022-09-01T00:27:01;4.30;;;1.13;;
28836;SDS011;50669;50.982;11.022;2022-09-01T00:29:29;2.97;;;0.82;;
28836;SDS011;50669;50.982;11.022;2022-09-01T00:31:57;2.28;;;1.30;;
28836;SDS011;50669;50.982;11.022;2022-09-01T00:34:23;4.55;;;1.30;;
28836;SDS011;50669;50.982;11.022;2022-09-01T00:36:52;1.83;;;0.90;;
28836;SDS011;50669;50.982;11.022;2022-09-01T00:39:17;2.03;;;1.05;;
28836;SDS011;50669;50.982;11.022;2022-09-01T00:41:45;2.22;;;1.00;;
28836;SDS011;50669;50.982;11.022;2022-09-01T00:44:15;1.15;;;0.90;;
28836;SDS011;50669;50.982;11.022;2022-09-01T00:46:44;2.25;;;1.15;;
28836;SDS011;50669;50.982;11.022;2022-09-01T00:51:42;1.40;;;0.70;;
28836;SDS011;50669;50.982;11.022;2022-09-01T00:54:13;2.55;;;0.80;;
28836;SDS011;50669;50.982;11.022;2022-09-01T00:56:43;1.45;;;0.90;;
28836;SDS011;50669;50.982;11.022;2022-09-01T00:59:10;2.33;;;0.90;;
28836;SDS011;50669;50.982;11.022;2022-09-01T01:01:40;2.28;;;0.95;;
28836;SDS011;50669;50.982;11.022;2022-09-01T01:04:06;1.45;;;0.95;;
28836;SDS011;50669;50.982;11.022;2022-09-01T01:09:15;1.60;;;0.70;;
28836;SDS011;50669;50.982;11.022;2022-09-01T01:11:42;1.95;;;1.05;;
28836;SDS011;50669;50.982;11.022;2022-09-01T01:14:11;2.22;;;0.90;;
28836;SDS011;50669;50.982;11.022;2022-09-01T01:16:45;2.97;;;0.95;;
28836;SDS011;50669;50.982;11.022;2022-09-01T01:19:15;4.07;;;1.10;;
28836;SDS011;50669;50.982;11.022;2022-09-01T01:22:13;2.03;;;0.93;;
28836;SDS011;50669;50.982;11.022;2022-09-01T01:25:03;1.70;;;1.27;;
28836;SDS011;50669;50.982;11.022;2022-09-01T01:27:30;5.22;;;1.00;;
28836;SDS011;50669;50.982;11.022;2022-09-01T01:29:59;3.63;;;1.05;;
28836;SDS011;50669;50.982;11.022;2022-09-01T01:32:25;1.52;;;0.90;;
28836;SDS011;50669;50.982;11.022;2022-09-01T01:34:51;1.60;;;0.80;;
28836;SDS011;50669;50.982;11.022;2022-09-01T01:37:17;3.65;;;1.08;;
28836;SDS011;50669;50.982;11.022;2022-09-01T01:39:46;3.95;;;1.13;;
28836;SDS011;50669;50.982;11.022;2022-09-01T01:42:13;2.42;;;1.00;;
28836;SDS011;50669;50.982;11.022;2022-09-01T01:44:38;2.95;;;1.15;;
28836;SDS011;50669;50.982;11.022;2022-09-01T01:47:07;2.38;;;1.00;;
28836;SDS011;50669;50.982;11.022;2022-09-01T01:49:37;1.42;;;0.90;;
28836;SDS011;50669;50.982;11.022;2022-09-01T01:52:07;3.67;;;1.00;;
28836;SDS011;50669;50.982;11.022;2022-09-01T01:54:36;5.25;;;1.90;;
28836;SDS011;50669;50.982;11.022;2022-09-01T01:57:04;4.47;;;1.15;;
28836;SDS011;50669;50.982;11.022;2022-09-01T01:59:32;4.28;;;1.20;;
28836;SDS011;50669;50.982;11.022;2022-09-01T02:02:02;4.28;;;1.50;;
28836;SDS011;50669;50.982;11.022;2022-09-01T02:04:32;2.10;;;1.10;;
28836;SDS011;50669;50.982;11.022;2022-09-01T02:07:00;4.43;;;1.08;;
28836;SDS011;50669;50.982;11.022;2022-09-01T02:09:28;4.18;;;1.60;;
28836;SDS011;50669;50.982;11.022;2022-09-01T02:11:57;1.42;;;0.98;;
28836;SDS011;50669;50.982;11.022;2022-09-01T02:14:23;4.20;;;1.25;;
28836;SDS011;50669;50.982;11.022;2022-09-01T02:16:49;2.67;;;1.23;;
28836;SDS011;50669;50.982;11.022;2022-09-01T02:19:14;2.65;;;1.25;;
28836;SDS011;50669;50.982;11.022;2022-09-01T02:21:44;1.85;;;1.00;;
28836;SDS011;50669;50.982;11.022;2022-09-01T02:24:20;3.67;;;1.50;;
28836;SDS011;50669;50.982;11.022;2022-09-01T02:26:48;2.30;;;1.30;;
28836;SDS011;50669;50.982;11.022;2022-09-01T02:29:16;2.33;;;1.35;;
28836;SDS011;50669;50.982;11.022;2022-09-01T02:31:53;2.13;;;1.35;;
28836;SDS011;50669;50.982;11.022;2022-09-01T02:34:20;2.22;;;1.40;;
28836;SDS011;50669;50.982;11.022;2022-09-01T02:36:49;4.60;;;1.77;;
28836;SDS011;50669;50.982;11.022;2022-09-01T02:39:20;1.52;;;1.13;;
28836;SDS011;50669;50.982;11.022;2022-09-01T02:41:51;1.90;;;1.10;;
28836;SDS011;50669;50.982;11.022;2022-09-01T02:44:17;1.92;;;1.05;;
28836;SDS011;50669;50.982;11.022;2022-09-01T02:46:44;3.92;;;1.70;;
28836;SDS011;50669;50.982;11.022;2022-09-01T02:49:12;3.40;;;1.10;;
28836;SDS011;50669;50.982;11.022;2022-09-01T02:51:51;2.17;;;1.30;;
28836;SDS011;50669;50.982;11.022;2022-09-01T02:54:19;2.15;;;1.10;;
28836;SDS011;50669;50.982;11.022;2022-09-01T02:56:48;3.03;;;1.45;;
28836;SDS011;50669;50.982;11.022;2022-09-01T02:59:18;4.18;;;1.52;;
28836;SDS011;50669;50.982;11.022;2022-09-01T03:01:47;4.60;;;1.70;;
28836;SDS011;50669;50.982;11.022;2022-09-01T03:04:14;5.15;;;1.60;;
28836;SDS011;50669;50.982;11.022;2022-09-01T03:06:42;4.38;;;2.42;;
28836;SDS011;50669;50.982;11.022;2022-09-01T03:09:12;3.35;;;1.50;;
28836;SDS011;50669;50.982;11.022;2022-09-01T03:11:43;3.28;;;1.40;;
28836;SDS011;50669;50.982;11.022;2022-09-01T03:14:10;2.63;;;1.25;;
28836;SDS011;50669;50.982;11.022;2022-09-01T03:16:36;4.03;;;1.58;;
28836;SDS011;50669;50.982;11.022;2022-09-01T03:19:03;3.92;;;1.73;;
28836;SDS011;50669;50.982;11.022;2022-09-01T03:21:33;3.63;;;1.60;;
28836;SDS011;50669;50.982;11.022;2022-09-01T03:24:02;5.10;;;1.10;;
28836;SDS011;50669;50.982;11.022;2022-09-01T03:26:31;1.40;;;1.08;;
28836;SDS011;50669;50.982;11.022;2022-09-01T03:28:56;8.75;;;1.92;;
28836;SDS011;50669;50.982;11.022;2022-09-01T03:31:25;7.65;;;1.83;;
28836;SDS011;50669;50.982;11.022;2022-09-01T03:33:52;3.75;;;1.35;;
28836;SDS011;50669;50.982;11.022;2022-09-01T03:36:21;3.50;;;2.13;;
28836;SDS011;50669;50.982;11.022;2022-09-01T03:38:49;3.78;;;1.77;;
28836;SDS011;50669;50.982;11.022;2022-09-01T03:41:17;5.50;;;1.52;;
28836;SDS011;50669;50.982;11.022;2022-09-01T03:43:46;8.48;;;2.00;;
28836;SDS011;50669;50.982;11.022;2022-09-01T03:46:12;3.95;;;1.60;;
28836;SDS011;50669;50.982;11.022;2022-09-01T03:48:46;5.30;;;1.88;;
28836;SDS011;50669;50.982;11.022;2022-09-01T03:51:13;6.95;;;2.00;;
28836;SDS011;50669;50.982;11.022;2022-09-01T03:53:41;4.22;;;1.65;;
28836;SDS011;50669;50.982;11.022;2022-09-01T03:56:08;3.30;;;1.83;;
28836;SDS011;50669;50.982;11.022;2022-09-01T03:58:35;5.82;;;2.25;;
28836;SDS011;50669;50.982;11.022;2022-09-01T04:01:01;8.13;;;2.00;;
28836;SDS011;50669;50.982;11.022;2022-09-01T04:03:28;4.53;;;1.98;;
28836;SDS011;50669;50.982;11.022;2022-09-01T04:05:57;9.85;;;3.10;;
28836;SDS011;50669;50.982;11.022;2022-09-01T04:08:24;9.05;;;2.33;;
28836;SDS011;50669;50.982;11.022;2022-09-01T04:10:56;16.45;;;2.63;;
28836;SDS011;50669;50.982;11.022;2022-09-01T04:13:26;13.18;;;2.70;;
28836;SDS011;50669;50.982;11.022;2022-09-01T04:16:00;8.07;;;2.13;;
28836;SDS011;50669;50.982;11.022;2022-09-01T04:18:26;8.02;;;2.22;;
28836;SDS011;50669;50.982;11.022;2022-09-01T04:20:53;8.30;;;1.98;;
28836;SDS011;50669;50.982;11.022;2022-09-01T04:25:55;5.85;;;2.78;;
28836;SDS011;50669;50.982;11.022;2022-09-01T04:28:25;2.88;;;1.90;;
28836;SDS011;50669;50.982;11.022;2022-09-01T04:30:58;10.93;;;3.50;;
28836;SDS011;50669;50.982;11.022;2022-09-01T04:33:32;9.98;;;2.70;;
28836;SDS011;50669;50.982;11.022;2022-09-01T04:36:04;8.25;;;2.53;;
28836;SDS011;50669;50.982;11.022;2022-09-01T04:38:31;2.55;;;1.85;;
28836;SDS011;50669;50.982;11.022;2022-09-01T04:41:04;5.57;;;2.20;;
28836;SDS011;50669;50.982;11.022;2022-09-01T04:43:33;7.00;;;2.40;;
28836;SDS011;50669;50.982;11.022;2022-09-01T04:45:59;8.05;;;2.75;;
28836;SDS011;50669;50.982;11.022;2022-09-01T04:48:26;4.22;;;2.35;;
28836;SDS011;50669;50.982;11.022;2022-09-01T04:50:52;6.20;;;2.58;;
28836;SDS011;50669;50.982;11.022;2022-09-01T04:53:20;7.20;;;2.85;;
28836;SDS011;50669;50.982;11.022;2022-09-01T04:55:46;6.47;;;2.45;;
28836;SDS011;50669;50.982;11.022;2022-09-01T04:58:12;4.65;;;2.35;;
28836;SDS011;50669;50.982;11.022;2022-09-01T05:00:42;4.97;;;2.00;;
28836;SDS011;50669;50.982;11.022;2022-09-01T05:03:13;5.70;;;2.30;;
28836;SDS011;50669;50.982;11.022;2022-09-01T05:05:43;5.35;;;2.25;;
28836;SDS011;50669;50.982;11.022;2022-09-01T05:08:15;5.43;;;2.20;;
28836;SDS011;50669;50.982;11.022;2022-09-01T05:10:46;8.68;;;2.67;;
28836;SDS011;50669;50.982;11.022;2022-09-01T05:13:19;7.18;;;2.45;;
28836;SDS011;50669;50.982;11.022;2022-09-01T05:15:58;9.90;;;3.00;;
28836;SDS011;50669;50.982;11.022;2022-09-01T05:18:28;8.18;;;2.55;;
28836;SDS011;50669;50.982;11.022;2022-09-01T05:20:54;9.10;;;2.85;;
28836;SDS011;50669;50.982;11.022;2022-09-01T05:23:21;4.65;;;2.20;;
28836;SDS011;50669;50.982;11.022;2022-09-01T05:25:50;6.22;;;2.13;;
28836;SDS011;50669;50.982;11.022;2022-09-01T05:28:19;6.50;;;2.38;;
28836;SDS011;50669;50.982;11.022;2022-09-01T05:30:51;6.35;;;2.50;;
28836;SDS011;50669;50.982;11.022;2022-09-01T05:33:19;6.93;;;2.88;;
28836;SDS011;50669;50.982;11.022;2022-09-01T05:35:53;9.35;;;2.58;;
28836;SDS011;50669;50.982;11.022;2022-09-01T05:38:20;9.18;;;2.78;;
28836;SDS011;50669;50.982;11.022;2022-09-01T05:40:54;8.98;;;2.47;;
28836;SDS011;50669;50.982;11.022;2022-09-01T05:43:28;6.57;;;2.30;;
28836;SDS011;50669;50.982;11.022;2022-09-01T05:45:56;13.20;;;3.65;;
28836;SDS011;50669;50.982;11.022;2022-09-01T05:48:25;5.32;;;2.80;;
28836;SDS011;50669;50.982;11.022;2022-09-01T05:50:55;6.03;;;2.72;;
28836;SDS011;50669;50.982;11.022;2022-09-01T05:53:23;7.68;;;2.47;;
28836;SDS011;50669;50.982;11.022;2022-09-01T05:55:51;8.57;;;3.10;;
28836;SDS011;50669;50.982;11.022;2022-09-01T05:58:21;7.32;;;3.17;;
28836;SDS011;50669;50.982;11.022;2022-09-01T06:03:25;10.27;;;3.08;;
28836;SDS011;50669;50.982;11.022;2022-09-01T06:05:54;8.75;;;2.47;;
28836;SDS011;50669;50.982;11.022;2022-09-01T06:08:25;8.82;;;2.85;;
28836;SDS011;50669;50.982;11.022;2022-09-01T06:10:53;7.18;;;3.15;;
28836;SDS011;50669;50.982;11.022;2022-09-01T06:13:19;7.43;;;2.60;;
28836;SDS011;50669;50.982;11.022;2022-09-01T06:15:46;7.90;;;2.92;;
28836;SDS011;50669;50.982;11.022;2022-09-01T06:18:13;8.75;;;2.88;;
28836;SDS011;50669;50.982;11.022;2022-09-01T06:20:42;11.23;;;2.88;;
28836;SDS011;50669;50.982;11.022;2022-09-01T06:23:10;9.95;;;4.25;;
28836;SDS011;50669;50.982;11.022;2022-09-01T06:25:41;6.22;;;2.90;;
28836;SDS011;50669;50.982;11.022;2022-09-01T06:28:13;5.22;;;2.67;;
28836;SDS011;50669;50.982;11.022;2022-09-01T06:30:39;3.60;;;2.17;;
28836;SDS011;50669;50.982;11.022;2022-09-01T06:33:06;8.25;;;2.53;;
28836;SDS011;50669;50.982;11.022;2022-09-01T06:35:34;10.23;;;2.83;;
28836;SDS011;50669;50.982;11.022;2022-09-01T06:38:04;7.35;;;3.13;;
28836;SDS011;50669;50.982;11.022;2022-09-01T06:40:33;6.95;;;3.17;;
28836;SDS011;50669;50.982;11.022;2022-09-01T06:42:59;12.73;;;3.95;;
28836;SDS011;50669;50.982;11.022;2022-09-01T06:45:26;4.47;;;2.83;;
28836;SDS011;50669;50.982;11.022;2022-09-01T06:47:52;6.05;;;3.22;;
28836;SDS011;50669;50.982;11.022;2022-09-01T06:50:21;5.85;;;2.80;;
28836;SDS011;50669;50.982;11.022;2022-09-01T06:52:51;5.95;;;2.75;;
28836;SDS011;50669;50.982;11.022;2022-09-01T06:55:25;13.70;;;2.92;;
28836;SDS011;50669;50.982;11.022;2022-09-01T06:57:57;11.05;;;3.00;;
28836;SDS011;50669;50.982;11.022;2022-09-01T07:00:29;7.55;;;2.38;;
28836;SDS011;50669;50.982;11.022;2022-09-01T07:02:56;8.45;;;3.75;;
28836;SDS011;50669;50.982;11.022;2022-09-01T07:05:23;7.38;;;3.20;;
28836;SDS011;50669;50.982;11.022;2022-09-01T07:07:51;6.32;;;2.58;;
28836;SDS011;50669;50.982;11.022;2022-09-01T07:10:23;4.55;;;2.78;;
28836;SDS011;50669;50.982;11.022;2022-09-01T07:12:51;10.15;;;3.00;;
28836;SDS011;50669;50.982;11.022;2022-09-01T07:15:23;7.35;;;3.67;;
28836;SDS011;50669;50.982;11.022;2022-09-01T07:17:53;9.40;;;2.78;;
28836;SDS011;50669;50.982;11.022;2022-09-01T07:20:21;6.78;;;2.90;;
28836;SDS011;50669;50.982;11.022;2022-09-01T07:22:51;6.85;;;3.28;;
28836;SDS011;50669;50.982;11.022;2022-09-01T07:25:18;5.93;;;2.80;;
28836;SDS011;50669;50.982;11.022;2022-09-01T07:27:46;4.75;;;2.63;;
28836;SDS011;50669;50.982;11.022;2022-09-01T07:30:19;6.55;;;3.13;;
28836;SDS011;50669;50.982;11.022;2022-09-01T07:32:46;8.40;;;2.78;;
28836;SDS011;50669;50.982;11.022;2022-09-01T07:35:15;3.85;;;2.58;;
28836;SDS011;50669;50.982;11.022;2022-09-01T07:37:44;6.18;;;2.67;;
28836;SDS011;50669;50.982;11.022;2022-09-01T07:40:13;7.03;;;2.95;;
28836;SDS011;50669;50.982;11.022;2022-09-01T07:42:45;9.77;;;3.40;;
28836;SDS011;50669;50.982;11.022;2022-09-01T07:45:11;5.05;;;2.75;;
28836;SDS011;50669;50.982;11.022;2022-09-01T07:47:40;3.97;;;2.72;;
28836;SDS011;50669;50.982;11.022;2022-09-01T07:50:09;6.60;;;3.03;;
28836;SDS011;50669;50.982;11.022;2022-09-01T07:52:37;5.25;;;3.05;;
28836;SDS011;50669;50.982;11.022;2022-09-01T07:55:10;6.30;;;2.60;;
28836;SDS011;50669;50.982;11.022;2022-09-01T07:57:40;4.47;;;2.42;;
28836;SDS011;50669;50.982;11.022;2022-09-01T08:00:08;4.53;;;2.72;;
28836;SDS011;50669;50.982;11.022;2022-09-01T08:02:35;9.38;;;3.17;;
28836;SDS011;50669;50.982;11.022;2022-09-01T08:05:07;4.35;;;2.55;;
28836;SDS011;50669;50.982;11.022;2022-09-01T08:07:37;9.05;;;2.20;;
28836;SDS011;50669;50.982;11.022;2022-09-01T08:10:04;8.15;;;2.90;;
28836;SDS011;50669;50.982;11.022;2022-09-01T08:12:34;3.35;;;2.40;;
28836;SDS011;50669;50.982;11.022;2022-09-01T08:15:03;5.22;;;2.00;;
28836;SDS011;50669;50.982;11.022;2022-09-01T08:17:31;5.15;;;2.42;;
28836;SDS011;50669;50.982;11.022;2022-09-01T08:19:59;8.73;;;2.60;;
28836;SDS011;50669;50.982;11.022;2022-09-01T08:22:27;3.92;;;2.45;;
28836;SDS011;50669;50.982;11.022;2022-09-01T08:24:55;3.97;;;2.00;;
28836;SDS011;50669;50.982;11.022;2022-09-01T08:27:21;5.07;;;3.05;;
28836;SDS011;50669;50.982;11.022;2022-09-01T08:29:48;5.18;;;2.75;;
28836;SDS011;50669;50.982;11.022;2022-09-01T08:32:14;6.28;;;2.72;;
28836;SDS011;50669;50.982;11.022;2022-09-01T08:34:44;2.88;;;2.00;;
28836;SDS011;50669;50.982;11.022;2022-09-01T08:37:12;15.60;;;3.63;;
28836;SDS011;50669;50.982;11.022;2022-09-01T08:39:40;7.30;;;2.70;;
28836;SDS011;50669;50.982;11.022;2022-09-01T08:47:04;13.13;;;4.00;;
28836;SDS011;50669;50.982;11.022;2022-09-01T08:49:33;6.00;;;3.10;;
28836;SDS011;50669;50.982;11.022;2022-09-01T08:52:10;3.55;;;2.10;;
28836;SDS011;50669;50.982;11.022;2022-09-01T08:54:48;7.10;;;3.10;;
28836;SDS011;50669;50.982;11.022;2022-09-01T09:00:00;4.22;;;2.80;;
28836;SDS011;50669;50.982;11.022;2022-09-01T09:05:04;9.57;;;3.00;;
28836;SDS011;50669;50.982;11.022;2022-09-01T09:10:42;5.05;;;2.38;;
28836;SDS011;50669;50.982;11.022;2022-09-01T09:16:38;7.88;;;3.85;;
28836;SDS011;50669;50.982;11.022;2022-09-01T09:19:20;5.47;;;2.33;;
28836;SDS011;50669;50.982;11.022;2022-09-01T09:21:53;5.57;;;2.47;;
28836;SDS011;50669;50.982;11.022;2022-09-01T09:29:49;7.97;;;2.55;;
28836;SDS011;50669;50.982;11.022;2022-09-01T09:32:22;3.17;;;1.85;;
28836;SDS011;50669;50.982;11.022;2022-09-01T09:37:55;6.95;;;2.53;;
28836;SDS011;50669;50.982;11.022;2022-09-01T09:43:31;6.60;;;2.85;;
28836;SDS011;50669;50.982;11.022;2022-09-01T09:52:11;4.25;;;1.95;;
28836;SDS011;50669;50.982;11.022;2022-09-01T09:54:35;6.18;;;2.40;;
28836;SDS011;50669;50.982;11.022;2022-09-01T09:57:11;4.32;;;2.20;;
28836;SDS011;50669;50.982;11.022;2022-09-01T10:02:20;5.28;;;2.50;;
28836;SDS011;50669;50.982;11.022;2022-09-01T10:04:57;5.85;;;1.98;;
28836;SDS011;50669;50.982;11.022;2022-09-01T10:10:04;6.00;;;2.47;;
28836;SDS011;50669;50.982;11.022;2022-09-01T10:12:48;3.03;;;1.67;;
28836;SDS011;50669;50.982;11.022;2022-09-01T10:15:16;3.60;;;1.98;;
28836;SDS011;50669;50.982;11.022;2022-09-01T10:17:49;4.53;;;1.88;;
28836;SDS011;50669;50.982;11.022;2022-09-01T10:20:18;2.45;;;1.80;;
28836;SDS011;50669;50.982;11.022;2022-09-01T10:22:49;3.33;;;1.60;;
28836;SDS011;50669;50.982;11.022;2022-09-01T10:25:19;4.55;;;1.50;;
28836;SDS011;50669;50.982;11.022;2022-09-01T10:27:48;3.53;;;1.75;;
28836;SDS011;50669;50.982;11.022;2022-09-01T10:30:20;2.88;;;1.30;;
28836;SDS011;50669;50.982;11.022;2022-09-01T10:32:51;4.60;;;1.58;;
28836;SDS011;50669;50.982;11.022;2022-09-01T10:37:57;6.60;;;2.35;;
28836;SDS011;50669;50.982;11.022;2022-09-01T10:42:54;4.10;;;1.65;;
28836;SDS011;50669;50.982;11.022;2022-09-01T10:48:20;3.42;;;1.65;;
28836;SDS011;50669;50.982;11.022;2022-09-01T10:50:45;5.13;;;1.33;;
28836;SDS011;50669;50.982;11.022;2022-09-01T10:56:15;6.70;;;1.95;;
28836;SDS011;50669;50.982;11.022;2022-09-01T11:04:08;5.95;;;1.38;;
28836;SDS011;50669;50.982;11.022;2022-09-01T11:09:25;6.65;;;2.13;;
28836;SDS011;50669;50.982;11.022;2022-09-01T11:14:50;5.25;;;1.48;;
28836;SDS011;50669;50.982;11.022;2022-09-01T11:19:53;3.95;;;1.55;;
28836;SDS011;50669;50.982;11.022;2022-09-01T11:30:14;7.18;;;1.85;;
28836;SDS011;50669;50.982;11.022;2022-09-01T11:32:50;4.40;;;1.35;;
28836;SDS011;50669;50.982;11.022;2022-09-01T11:35:35;3.42;;;1.60;;
28836;SDS011;50669;50.982;11.022;2022-09-01T11:38:03;9.13;;;1.95;;
28836;SDS011;50669;50.982;11.022;2022-09-01T11:40:32;4.10;;;1.20;;
28836;SDS011;50669;50.982;11.022;2022-09-01T11:43:02;2.53;;;1.20;;
28836;SDS011;50669;50.982;11.022;2022-09-01T11:45:37;6.95;;;1.88;;
28836;SDS011;50669;50.982;11.022;2022-09-01T11:48:25;7.00;;;1.17;;
28836;SDS011;50669;50.982;11.022;2022-09-01T11:50:58;3.08;;;1.20;;
28836;SDS011;50669;50.982;11.022;2022-09-01T11:53:28;3.15;;;1.90;;
28836;SDS011;50669;50.982;11.022;2022-09-01T11:55:55;4.10;;;1.35;;
28836;SDS011;50669;50.982;11.022;2022-09-01T11:58:35;5.18;;;1.10;;
28836;SDS011;50669;50.982;11.022;2022-09-01T12:04:06;2.80;;;1.20;;
28836;SDS011;50669;50.982;11.022;2022-09-01T12:06:55;4.63;;;0.98;;
28836;SDS011;50669;50.982;11.022;2022-09-01T12:09:30;3.47;;;1.15;;
28836;SDS011;50669;50.982;11.022;2022-09-01T12:12:01;4.57;;;1.10;;
28836;SDS011;50669;50.982;11.022;2022-09-01T12:14:29;2.72;;;1.08;;
28836;SDS011;50669;50.982;11.022;2022-09-01T12:16:55;3.35;;;1.23;;
28836;SDS011;50669;50.982;11.022;2022-09-01T12:19:28;3.17;;;0.80;;
28836;SDS011;50669;50.982;11.022;2022-09-01T12:22:00;4.78;;;1.40;;
28836;SDS011;50669;50.982;11.022;2022-09-01T12:24:52;5.82;;;1.23;;
28836;SDS011;50669;50.982;11.022;2022-09-01T12:27:19;7.80;;;1.40;;
28836;SDS011;50669;50.982;11.022;2022-09-01T12:29:47;2.70;;;1.20;;
28836;SDS011;50669;50.982;11.022;2022-09-01T12:32:15;5.22;;;1.30;;
28836;SDS011;50669;50.982;11.022;2022-09-01T12:34:43;4.75;;;0.88;;
28836;SDS011;50669;50.982;11.022;2022-09-01T12:39:43;4.57;;;1.17;;
28836;SDS011;50669;50.982;11.022;2022-09-01T12:44:56;6.57;;;1.30;;
28836;SDS011;50669;50.982;11.022;2022-09-01T12:52:42;3.00;;;1.10;;
28836;SDS011;50669;50.982;11.022;2022-09-01T12:55:20;3.40;;;1.27;;
28836;SDS011;50669;50.982;11.022;2022-09-01T12:57:56;3.88;;;1.10;;
28836;SDS011;50669;50.982;11.022;2022-09-01T13:00:30;5.03;;;1.45;;
28836;SDS011;50669;50.982;11.022;2022-09-01T13:03:22;5.80;;;1.30;;
28836;SDS011;50669;50.982;11.022;2022-09-01T13:05:50;5.75;;;1.65;;
28836;SDS011;50669;50.982;11.022;2022-09-01T13:08:27;4.82;;;1.42;;
28836;SDS011;50669;50.982;11.022;2022-09-01T13:11:08;3.70;;;1.30;;
28836;SDS011;50669;50.982;11.022;2022-09-01T13:13:39;8.73;;;1.55;;
28836;SDS011;50669;50.982;11.022;2022-09-01T13:16:05;2.65;;;1.08;;
28836;SDS011;50669;50.982;11.022;2022-09-01T13:18:40;3.47;;;1.45;;
28836;SDS011;50669;50.982;11.022;2022-09-01T13:21:09;3.05;;;1.45;;
28836;SDS011;50669;50.982;11.022;2022-09-01T13:23:36;3.60;;;0.90;;
28836;SDS011;50669;50.982;11.022;2022-09-01T13:26:02;4.80;;;1.20;;
28836;SDS011;50669;50.982;11.022;2022-09-01T13:28:28;6.55;;;2.17;;
28836;SDS011;50669;50.982;11.022;2022-09-01T13:30:56;6.07;;;1.27;;
28836;SDS011;50669;50.982;11.022;2022-09-01T13:33:23;3.90;;;1.30;;
28836;SDS011;50669;50.982;11.022;2022-09-01T13:35:49;4.75;;;1.40;;
28836;SDS011;50669;50.982;11.022;2022-09-01T13:38:16;4.57;;;1.20;;
28836;SDS011;50669;50.982;11.022;2022-09-01T13:40:42;2.38;;;1.38;;
28836;SDS011;50669;50.982;11.022;2022-09-01T13:43:11;3.83;;;1.33;;
28836;SDS011;50669;50.982;11.022;2022-09-01T13:45:37;2.78;;;1.10;;
28836;SDS011;50669;50.982;11.022;2022-09-01T13:48:05;5.13;;;1.45;;
28836;SDS011;50669;50.982;11.022;2022-09-01T13:50:31;5.10;;;1.35;;
28836;SDS011;50669;50.982;11.022;2022-09-01T13:52:57;6.45;;;2.08;;
28836;SDS011;50669;50.982;11.022;2022-09-01T13:55:26;2.08;;;1.00;;
28836;SDS011;50669;50.982;11.022;2022-09-01T13:57:54;2.42;;;1.20;;
28836;SDS011;50669;50.982;11.022;2022-09-01T14:00:24;1.67;;;1.10;;
28836;SDS011;50669;50.982;11.022;2022-09-01T14:02:53;4.18;;;1.00;;
28836;SDS011;50669;50.982;11.022;2022-09-01T14:05:25;5.97;;;1.27;;
28836;SDS011;50669;50.982;11.022;2022-09-01T14:07:53;8.85;;;2.17;;
28836;SDS011;50669;50.982;11.022;2022-09-01T14:10:19;5.15;;;1.30;;
28836;SDS011;50669;50.982;11.022;2022-09-01T14:12:47;4.63;;;1.40;;
28836;SDS011;50669;50.982;11.022;2022-09-01T14:15:15;5.47;;;1.63;;
28836;SDS011;50669;50.982;11.022;2022-09-01T14:17:45;4.82;;;1.17;;
28836;SDS011;50669;50.982;11.022;2022-09-01T14:20:19;5.65;;;1.45;;
28836;SDS011;50669;50.982;11.022;2022-09-01T14:22:46;3.38;;;1.30;;
28836;SDS011;50669;50.982;11.022;2022-09-01T14:25:15;2.42;;;1.13;;
28836;SDS011;50669;50.982;11.022;2022-09-01T14:27:41;4.28;;;0.90;;
28836;SDS011;50669;50.982;11.022;2022-09-01T14:30:11;2.53;;;1.08;;
28836;SDS011;50669;50.982;11.022;2022-09-01T14:32:40;2.20;;;1.08;;
28836;SDS011;50669;50.982;11.022;2022-09-01T14:35:07;4.25;;;1.80;;
28836;SDS011;50669;50.982;11.022;2022-09-01T14:37:37;3.22;;;1.35;;
28836;SDS011;50669;50.982;11.022;2022-09-01T14:40:05;4.88;;;1.20;;
28836;SDS011;50669;50.982;11.022;2022-09-01T14:42:32;2.70;;;0.88;;
28836;SDS011;50669;50.982;11.022;2022-09-01T14:44:59;2.35;;;0.90;;
28836;SDS011;50669;50.982;11.022;2022-09-01T14:47:26;4.55;;;1.20;;
28836;SDS011;50669;50.982;11.022;2022-09-01T14:49:52;5.32;;;1.08;;
28836;SDS011;50669;50.982;11.022;2022-09-01T14:52:18;3.40;;;1.15;;
28836;SDS011;50669;50.982;11.022;2022-09-01T14:54:44;1.67;;;0.80;;
28836;SDS011;50669;50.982;11.022;2022-09-01T14:57:10;2.30;;;0.68;;
28836;SDS011;50669;50.982;11.022;2022-09-01T14:59:38;3.38;;;1.00;;
28836;SDS011;50669;50.982;11.022;2022-09-01T15:02:05;1.83;;;1.02;;
28836;SDS011;50669;50.982;11.022;2022-09-01T15:04:33;2.45;;;1.83;;
28836;SDS011;50669;50.982;11.022;2022-09-01T15:07:01;3.00;;;1.67;;
28836;SDS011;50669;50.982;11.022;2022-09-01T15:09:30;3.08;;;1.13;;
28836;SDS011;50669;50.982;11.022;2022-09-01T15:11:56;3.63;;;0.90;;
28836;SDS011;50669;50.982;11.022;2022-09-01T15:14:22;0.90;;;0.60;;
28836;SDS011;50669;50.982;11.022;2022-09-01T15:16:50;1.35;;;0.80;;
28836;SDS011;50669;50.982;11.022;2022-09-01T15:19:16;5.20;;;1.10;;
28836;SDS011;50669;50.982;11.022;2022-09-01T15:21:45;4.20;;;0.90;;
28836;SDS011;50669;50.982;11.022;2022-09-01T15:24:11;3.28;;;1.00;;
28836;SDS011;50669;50.982;11.022;2022-09-01T15:26:39;4.32;;;0.80;;
28836;SDS011;50669;50.982;11.022;2022-09-01T15:29:05;16.02;;;2.20;;
28836;SDS011;50669;50.982;11.022;2022-09-01T15:31:33;5.57;;;0.90;;
28836;SDS011;50669;50.982;11.022;2022-09-01T15:34:00;3.42;;;1.00;;
28836;SDS011;50669;50.982;11.022;2022-09-01T15:36:28;3.30;;;1.05;;
28836;SDS011;50669;50.982;11.022;2022-09-01T15:38:55;8.73;;;1.33;;
28836;SDS011;50669;50.982;11.022;2022-09-01T15:41:23;3.25;;;0.90;;
28836;SDS011;50669;50.982;11.022;2022-09-01T15:43:51;4.10;;;1.10;;
28836;SDS011;50669;50.982;11.022;2022-09-01T15:46:17;2.40;;;0.93;;
28836;SDS011;50669;50.982;11.022;2022-09-01T15:48:43;2.92;;;0.90;;
28836;SDS011;50669;50.982;11.022;2022-09-01T15:53:50;2.97;;;0.90;;
28836;SDS011;50669;50.982;11.022;2022-09-01T15:56:19;3.60;;;1.15;;
28836;SDS011;50669;50.982;11.022;2022-09-01T15:58:45;10.90;;;2.05;;
28836;SDS011;50669;50.982;11.022;2022-09-01T16:01:14;3.55;;;1.10;;
28836;SDS011;50669;50.982;11.022;2022-09-01T16:03:42;3.78;;;0.80;;
28836;SDS011;50669;50.982;11.022;2022-09-01T16:06:07;2.83;;;0.82;;
28836;SDS011;50669;50.982;11.022;2022-09-01T16:08:35;3.85;;;1.42;;
28836;SDS011;50669;50.982;11.022;2022-09-01T16:11:04;5.47;;;1.17;;
28836;SDS011;50669;50.982;11.022;2022-09-01T16:13:43;1.98;;;0.98;;
28836;SDS011;50669;50.982;11.022;2022-09-01T16:16:18;8.15;;;1.92;;
28836;SDS011;50669;50.982;11.022;2022-09-01T16:21:48;3.10;;;1.00;;
28836;SDS011;50669;50.982;11.022;2022-09-01T16:24:29;1.00;;;0.88;;
28836;SDS011;50669;50.982;11.022;2022-09-01T16:27:03;7.28;;;1.20;;
28836;SDS011;50669;50.982;11.022;2022-09-01T16:29:52;2.95;;;0.93;;